Terminal Aerodrome Forecast
Issued by NWS

Home | Current Version | Previous Version | Text Only | Print | Product List | Glossary On
Versions: 1 2 3 4 5 6 7 8 9 10 11 12 13 14 15 16 17 18
000
FTUS44 KTSA 050200 AAA
TAFRVS
TAF AMD
KRVS 050223Z 0502/0524 03008KT 6SM -SN SCT060 OVC070
     FM050500 02010G16KT P6SM OVC090
     FM051000 03002KT P6SM BKN200=

USA.gov is the U.S. government's official web portal to all federal, state and local government web resources and services.